WAJJ/DJJ METAR and TAF weather

Enter ICAO airport designator
Station Type Date Time Source
WAJJ METAR 2022/05/25 01:30 UTC NOAA

WAJJ 250130Z 13006KT 9999 FEW014 32/21 Q1009 NOSIG


Station Type Date Time Source
WAJJ Decoded METAR 2022/05/25 01:30 UTC NOAA

Jayapura / Sentani, Indonesia (WAJJ) 02-34S 140-29E 99M
May 24, 2022 - 09:30 PM EDT / 2022.05.25 0130 UTC
Wind: from the SE (130 degrees) at 7 MPH (6 KT):0
Visibility: greater than 7 mile(s):0
Sky conditions: mostly clear
Temperature: 89 F (32 C)
Dew Point: 69 F (21 C)
Relative Humidity: 52%
Pressure (altimeter): 29.80 in. Hg (1009 hPa)
ob: WAJJ 250130Z 13006KT 9999 FEW014 32/21 Q1009 NOSIG
cycle: 1

Station Type Date Time Source
WAJJ TAF 2013/03/11 12:00 UTC NOAA

TAF WAJJ 111100Z 1112/1212 29006KT 5000 HZ SCT016
TEMPO 1113/1121 4000 RA FEW014CB
BECMG 1200/1202 28012KT 9999
TEMPO 1207/1212 6000 RA FEW014CB

Example: see airport list